sensor_id;sensor_type;location;lat;lon;timestamp;P1;durP1;ratioP1;P2;durP2;ratioP2
13218;SDS011;6674;49.152;11.918;2023-03-21T00:02:23;7.03;;;6.30;;
13218;SDS011;6674;49.152;11.918;2023-03-21T00:04:50;6.37;;;5.77;;
13218;SDS011;6674;49.152;11.918;2023-03-21T00:07:16;7.20;;;6.50;;
13218;SDS011;6674;49.152;11.918;2023-03-21T00:09:43;6.47;;;5.90;;
13218;SDS011;6674;49.152;11.918;2023-03-21T00:12:11;6.63;;;5.97;;
13218;SDS011;6674;49.152;11.918;2023-03-21T00:14:45;6.80;;;6.10;;
13218;SDS011;6674;49.152;11.918;2023-03-21T00:17:30;6.50;;;5.83;;
13218;SDS011;6674;49.152;11.918;2023-03-21T00:19:57;6.30;;;5.70;;
13218;SDS011;6674;49.152;11.918;2023-03-21T00:22:24;6.67;;;6.07;;
13218;SDS011;6674;49.152;11.918;2023-03-21T00:24:51;7.37;;;6.40;;
13218;SDS011;6674;49.152;11.918;2023-03-21T00:27:19;5.30;;;4.80;;
13218;SDS011;6674;49.152;11.918;2023-03-21T00:29:46;5.60;;;4.90;;
13218;SDS011;6674;49.152;11.918;2023-03-21T00:32:14;4.77;;;4.30;;
13218;SDS011;6674;49.152;11.918;2023-03-21T00:34:40;4.43;;;4.03;;
13218;SDS011;6674;49.152;11.918;2023-03-21T00:37:08;4.93;;;4.53;;
13218;SDS011;6674;49.152;11.918;2023-03-21T00:39:36;5.80;;;5.30;;
13218;SDS011;6674;49.152;11.918;2023-03-21T00:42:02;5.20;;;4.70;;
13218;SDS011;6674;49.152;11.918;2023-03-21T00:44:31;5.00;;;4.50;;
13218;SDS011;6674;49.152;11.918;2023-03-21T00:47:00;6.40;;;5.03;;
13218;SDS011;6674;49.152;11.918;2023-03-21T00:49:27;5.30;;;4.80;;
13218;SDS011;6674;49.152;11.918;2023-03-21T00:51:57;5.70;;;5.10;;
13218;SDS011;6674;49.152;11.918;2023-03-21T00:54:24;4.90;;;4.50;;
13218;SDS011;6674;49.152;11.918;2023-03-21T00:56:51;5.60;;;4.77;;
13218;SDS011;6674;49.152;11.918;2023-03-21T00:59:17;4.80;;;4.37;;
13218;SDS011;6674;49.152;11.918;2023-03-21T01:01:46;5.47;;;4.80;;
13218;SDS011;6674;49.152;11.918;2023-03-21T01:04:13;4.70;;;4.30;;
13218;SDS011;6674;49.152;11.918;2023-03-21T01:06:41;4.70;;;4.30;;
13218;SDS011;6674;49.152;11.918;2023-03-21T01:09:10;5.80;;;5.20;;
13218;SDS011;6674;49.152;11.918;2023-03-21T01:11:38;5.63;;;5.13;;
13218;SDS011;6674;49.152;11.918;2023-03-21T01:14:06;6.03;;;5.37;;
13218;SDS011;6674;49.152;11.918;2023-03-21T01:16:34;5.73;;;5.23;;
13218;SDS011;6674;49.152;11.918;2023-03-21T01:19:03;5.50;;;5.00;;
13218;SDS011;6674;49.152;11.918;2023-03-21T01:21:31;5.30;;;4.80;;
13218;SDS011;6674;49.152;11.918;2023-03-21T01:23:58;4.70;;;4.30;;
13218;SDS011;6674;49.152;11.918;2023-03-21T01:26:26;4.57;;;4.17;;
13218;SDS011;6674;49.152;11.918;2023-03-21T01:28:52;5.00;;;4.60;;
13218;SDS011;6674;49.152;11.918;2023-03-21T01:31:19;4.60;;;4.20;;
13218;SDS011;6674;49.152;11.918;2023-03-21T01:33:46;5.20;;;4.67;;
13218;SDS011;6674;49.152;11.918;2023-03-21T01:36:15;5.17;;;4.67;;
13218;SDS011;6674;49.152;11.918;2023-03-21T01:38:43;5.10;;;4.70;;
13218;SDS011;6674;49.152;11.918;2023-03-21T01:41:13;4.40;;;4.07;;
13218;SDS011;6674;49.152;11.918;2023-03-21T01:43:46;4.53;;;4.13;;
13218;SDS011;6674;49.152;11.918;2023-03-21T01:46:19;4.33;;;3.93;;
13218;SDS011;6674;49.152;11.918;2023-03-21T01:49:06;3.50;;;3.20;;
13218;SDS011;6674;49.152;11.918;2023-03-21T01:51:38;6.47;;;5.60;;
13218;SDS011;6674;49.152;11.918;2023-03-21T01:54:08;5.00;;;4.60;;
13218;SDS011;6674;49.152;11.918;2023-03-21T01:56:40;4.27;;;3.87;;
13218;SDS011;6674;49.152;11.918;2023-03-21T01:59:11;4.30;;;3.90;;
13218;SDS011;6674;49.152;11.918;2023-03-21T02:01:41;4.30;;;3.90;;
13218;SDS011;6674;49.152;11.918;2023-03-21T02:04:09;4.37;;;3.87;;
13218;SDS011;6674;49.152;11.918;2023-03-21T02:06:40;3.80;;;3.40;;
13218;SDS011;6674;49.152;11.918;2023-03-21T02:09:12;3.77;;;3.47;;
13218;SDS011;6674;49.152;11.918;2023-03-21T02:11:43;4.50;;;4.10;;
13218;SDS011;6674;49.152;11.918;2023-03-21T02:14:13;4.20;;;3.80;;
13218;SDS011;6674;49.152;11.918;2023-03-21T02:16:45;4.23;;;3.90;;
13218;SDS011;6674;49.152;11.918;2023-03-21T02:19:22;3.73;;;3.43;;
13218;SDS011;6674;49.152;11.918;2023-03-21T02:22:16;4.27;;;3.87;;
13218;SDS011;6674;49.152;11.918;2023-03-21T02:25:08;5.37;;;4.40;;
13218;SDS011;6674;49.152;11.918;2023-03-21T02:28:00;4.67;;;4.27;;
13218;SDS011;6674;49.152;11.918;2023-03-21T02:30:37;4.57;;;4.00;;
13218;SDS011;6674;49.152;11.918;2023-03-21T02:38:54;4.17;;;3.77;;
13218;SDS011;6674;49.152;11.918;2023-03-21T02:41:35;4.33;;;3.93;;
13218;SDS011;6674;49.152;11.918;2023-03-21T02:44:10;4.47;;;4.07;;
13218;SDS011;6674;49.152;11.918;2023-03-21T02:46:44;4.33;;;3.93;;
13218;SDS011;6674;49.152;11.918;2023-03-21T02:49:17;4.43;;;4.03;;
13218;SDS011;6674;49.152;11.918;2023-03-21T02:51:49;4.33;;;3.97;;
13218;SDS011;6674;49.152;11.918;2023-03-21T02:54:20;4.03;;;3.73;;
13218;SDS011;6674;49.152;11.918;2023-03-21T02:56:50;4.27;;;3.87;;
13218;SDS011;6674;49.152;11.918;2023-03-21T02:59:18;3.60;;;3.30;;
13218;SDS011;6674;49.152;11.918;2023-03-21T03:01:49;4.70;;;4.27;;
13218;SDS011;6674;49.152;11.918;2023-03-21T03:04:17;4.20;;;3.80;;
13218;SDS011;6674;49.152;11.918;2023-03-21T03:06:54;4.03;;;3.73;;
13218;SDS011;6674;49.152;11.918;2023-03-21T03:09:44;5.07;;;4.57;;
13218;SDS011;6674;49.152;11.918;2023-03-21T03:12:24;5.37;;;4.33;;
13218;SDS011;6674;49.152;11.918;2023-03-21T03:14:57;5.00;;;4.50;;
13218;SDS011;6674;49.152;11.918;2023-03-21T03:17:34;5.60;;;5.10;;
13218;SDS011;6674;49.152;11.918;2023-03-21T03:20:27;5.57;;;4.27;;
13218;SDS011;6674;49.152;11.918;2023-03-21T03:23:06;4.60;;;4.20;;
13218;SDS011;6674;49.152;11.918;2023-03-21T03:25:43;4.37;;;3.97;;
13218;SDS011;6674;49.152;11.918;2023-03-21T03:28:15;5.03;;;4.53;;
13218;SDS011;6674;49.152;11.918;2023-03-21T03:30:45;5.00;;;4.50;;
13218;SDS011;6674;49.152;11.918;2023-03-21T03:33:14;5.20;;;4.70;;
13218;SDS011;6674;49.152;11.918;2023-03-21T03:35:47;5.43;;;4.93;;
13218;SDS011;6674;49.152;11.918;2023-03-21T03:38:17;5.60;;;5.00;;
13218;SDS011;6674;49.152;11.918;2023-03-21T03:40:48;5.13;;;4.67;;
13218;SDS011;6674;49.152;11.918;2023-03-21T03:43:20;5.20;;;4.70;;
13218;SDS011;6674;49.152;11.918;2023-03-21T03:45:52;5.07;;;4.67;;
13218;SDS011;6674;49.152;11.918;2023-03-21T03:48:24;5.40;;;4.90;;
13218;SDS011;6674;49.152;11.918;2023-03-21T03:50:54;5.77;;;5.27;;
13218;SDS011;6674;49.152;11.918;2023-03-21T03:53:26;5.00;;;4.60;;
13218;SDS011;6674;49.152;11.918;2023-03-21T03:55:57;4.90;;;4.50;;
13218;SDS011;6674;49.152;11.918;2023-03-21T03:58:25;5.20;;;4.70;;
13218;SDS011;6674;49.152;11.918;2023-03-21T04:00:55;5.93;;;5.30;;
13218;SDS011;6674;49.152;11.918;2023-03-21T04:03:23;4.90;;;4.40;;
13218;SDS011;6674;49.152;11.918;2023-03-21T04:05:50;4.90;;;4.50;;
13218;SDS011;6674;49.152;11.918;2023-03-21T04:08:18;4.50;;;4.10;;
13218;SDS011;6674;49.152;11.918;2023-03-21T04:10:47;5.00;;;4.60;;
13218;SDS011;6674;49.152;11.918;2023-03-21T04:13:15;7.37;;;5.17;;
13218;SDS011;6674;49.152;11.918;2023-03-21T04:15:42;5.77;;;5.27;;
13218;SDS011;6674;49.152;11.918;2023-03-21T04:18:09;5.60;;;5.10;;
13218;SDS011;6674;49.152;11.918;2023-03-21T04:20:48;6.83;;;5.37;;
13218;SDS011;6674;49.152;11.918;2023-03-21T04:23:16;5.60;;;5.10;;
13218;SDS011;6674;49.152;11.918;2023-03-21T04:25:44;4.60;;;4.20;;
13218;SDS011;6674;49.152;11.918;2023-03-21T04:28:11;4.30;;;3.90;;
13218;SDS011;6674;49.152;11.918;2023-03-21T04:30:39;4.60;;;4.17;;
13218;SDS011;6674;49.152;11.918;2023-03-21T04:33:06;5.20;;;4.70;;
13218;SDS011;6674;49.152;11.918;2023-03-21T04:35:33;4.50;;;4.10;;
13218;SDS011;6674;49.152;11.918;2023-03-21T04:38:00;4.27;;;3.87;;
13218;SDS011;6674;49.152;11.918;2023-03-21T04:40:27;4.50;;;4.10;;
13218;SDS011;6674;49.152;11.918;2023-03-21T04:42:54;4.20;;;3.80;;
13218;SDS011;6674;49.152;11.918;2023-03-21T04:45:20;4.23;;;3.83;;
13218;SDS011;6674;49.152;11.918;2023-03-21T04:47:48;4.90;;;4.40;;
13218;SDS011;6674;49.152;11.918;2023-03-21T04:50:15;4.50;;;4.10;;
13218;SDS011;6674;49.152;11.918;2023-03-21T04:52:41;5.30;;;4.30;;
13218;SDS011;6674;49.152;11.918;2023-03-21T04:55:08;4.87;;;4.40;;
13218;SDS011;6674;49.152;11.918;2023-03-21T04:57:35;4.90;;;4.50;;
13218;SDS011;6674;49.152;11.918;2023-03-21T05:00:03;4.47;;;4.07;;
13218;SDS011;6674;49.152;11.918;2023-03-21T05:02:34;4.57;;;4.17;;
13218;SDS011;6674;49.152;11.918;2023-03-21T05:05:03;4.40;;;4.00;;
13218;SDS011;6674;49.152;11.918;2023-03-21T05:07:31;4.53;;;4.13;;
13218;SDS011;6674;49.152;11.918;2023-03-21T05:09:58;4.97;;;4.40;;
13218;SDS011;6674;49.152;11.918;2023-03-21T05:12:25;5.43;;;4.30;;
13218;SDS011;6674;49.152;11.918;2023-03-21T05:14:52;4.20;;;3.80;;
13218;SDS011;6674;49.152;11.918;2023-03-21T05:17:18;4.87;;;4.37;;
13218;SDS011;6674;49.152;11.918;2023-03-21T05:19:47;4.30;;;3.90;;
13218;SDS011;6674;49.152;11.918;2023-03-21T05:22:16;4.37;;;4.00;;
13218;SDS011;6674;49.152;11.918;2023-03-21T05:24:43;4.87;;;4.37;;
13218;SDS011;6674;49.152;11.918;2023-03-21T05:27:14;5.40;;;4.90;;
13218;SDS011;6674;49.152;11.918;2023-03-21T05:29:58;4.83;;;4.30;;
13218;SDS011;6674;49.152;11.918;2023-03-21T05:32:25;4.70;;;4.30;;
13218;SDS011;6674;49.152;11.918;2023-03-21T05:34:51;4.53;;;4.13;;
13218;SDS011;6674;49.152;11.918;2023-03-21T05:37:19;4.70;;;4.30;;
13218;SDS011;6674;49.152;11.918;2023-03-21T05:39:46;4.30;;;3.90;;
13218;SDS011;6674;49.152;11.918;2023-03-21T05:42:13;3.80;;;3.50;;
13218;SDS011;6674;49.152;11.918;2023-03-21T05:44:40;4.03;;;3.73;;
13218;SDS011;6674;49.152;11.918;2023-03-21T05:47:07;4.80;;;4.20;;
13218;SDS011;6674;49.152;11.918;2023-03-21T05:49:33;4.67;;;4.27;;
13218;SDS011;6674;49.152;11.918;2023-03-21T05:52:00;4.80;;;4.40;;
13218;SDS011;6674;49.152;11.918;2023-03-21T05:54:28;4.53;;;4.13;;
13218;SDS011;6674;49.152;11.918;2023-03-21T05:56:54;4.23;;;3.90;;
13218;SDS011;6674;49.152;11.918;2023-03-21T05:59:21;4.40;;;4.00;;
13218;SDS011;6674;49.152;11.918;2023-03-21T06:01:48;4.13;;;3.77;;
13218;SDS011;6674;49.152;11.918;2023-03-21T06:04:15;4.40;;;4.00;;
13218;SDS011;6674;49.152;11.918;2023-03-21T06:06:41;4.67;;;4.27;;
13218;SDS011;6674;49.152;11.918;2023-03-21T06:09:08;4.40;;;4.10;;
13218;SDS011;6674;49.152;11.918;2023-03-21T06:11:37;4.57;;;4.17;;
13218;SDS011;6674;49.152;11.918;2023-03-21T06:14:06;4.77;;;4.37;;
13218;SDS011;6674;49.152;11.918;2023-03-21T06:16:32;5.07;;;4.67;;
13218;SDS011;6674;49.152;11.918;2023-03-21T06:18:59;5.07;;;4.63;;
13218;SDS011;6674;49.152;11.918;2023-03-21T06:21:25;6.43;;;5.13;;
13218;SDS011;6674;49.152;11.918;2023-03-21T06:23:52;4.87;;;4.47;;
13218;SDS011;6674;49.152;11.918;2023-03-21T06:26:19;5.67;;;5.07;;
13218;SDS011;6674;49.152;11.918;2023-03-21T06:28:48;6.13;;;5.30;;
13218;SDS011;6674;49.152;11.918;2023-03-21T06:31:15;5.17;;;4.73;;
13218;SDS011;6674;49.152;11.918;2023-03-21T06:33:42;7.03;;;5.80;;
13218;SDS011;6674;49.152;11.918;2023-03-21T06:36:09;6.87;;;5.13;;
13218;SDS011;6674;49.152;11.918;2023-03-21T06:38:36;6.57;;;5.17;;
13218;SDS011;6674;49.152;11.918;2023-03-21T06:41:03;5.80;;;5.07;;
13218;SDS011;6674;49.152;11.918;2023-03-21T06:43:31;5.40;;;4.90;;
13218;SDS011;6674;49.152;11.918;2023-03-21T06:46:00;5.20;;;4.70;;
13218;SDS011;6674;49.152;11.918;2023-03-21T06:48:27;5.30;;;4.80;;
13218;SDS011;6674;49.152;11.918;2023-03-21T06:50:54;5.47;;;4.97;;
13218;SDS011;6674;49.152;11.918;2023-03-21T06:53:21;6.07;;;5.47;;
13218;SDS011;6674;49.152;11.918;2023-03-21T06:55:51;5.87;;;5.37;;
13218;SDS011;6674;49.152;11.918;2023-03-21T06:58:18;6.37;;;5.77;;
13218;SDS011;6674;49.152;11.918;2023-03-21T07:00:45;6.50;;;5.90;;
13218;SDS011;6674;49.152;11.918;2023-03-21T07:03:14;6.10;;;5.50;;
13218;SDS011;6674;49.152;11.918;2023-03-21T07:05:40;5.77;;;5.17;;
13218;SDS011;6674;49.152;11.918;2023-03-21T07:08:08;7.87;;;5.90;;
13218;SDS011;6674;49.152;11.918;2023-03-21T07:10:37;6.37;;;5.77;;
13218;SDS011;6674;49.152;11.918;2023-03-21T07:13:04;6.20;;;5.60;;
13218;SDS011;6674;49.152;11.918;2023-03-21T07:15:30;6.20;;;5.37;;
13218;SDS011;6674;49.152;11.918;2023-03-21T07:17:58;5.53;;;5.10;;
13218;SDS011;6674;49.152;11.918;2023-03-21T07:20:26;5.50;;;5.00;;
13218;SDS011;6674;49.152;11.918;2023-03-21T07:22:53;5.70;;;5.17;;
13218;SDS011;6674;49.152;11.918;2023-03-21T07:25:20;5.57;;;5.07;;
13218;SDS011;6674;49.152;11.918;2023-03-21T07:27:46;7.33;;;5.60;;
13218;SDS011;6674;49.152;11.918;2023-03-21T07:30:13;6.17;;;5.57;;
13218;SDS011;6674;49.152;11.918;2023-03-21T07:32:41;7.20;;;5.00;;
13218;SDS011;6674;49.152;11.918;2023-03-21T07:35:10;6.00;;;5.40;;
13218;SDS011;6674;49.152;11.918;2023-03-21T07:37:39;6.17;;;5.07;;
13218;SDS011;6674;49.152;11.918;2023-03-21T07:40:06;7.17;;;5.30;;
13218;SDS011;6674;49.152;11.918;2023-03-21T07:42:35;5.80;;;5.20;;
13218;SDS011;6674;49.152;11.918;2023-03-21T07:45:02;5.83;;;5.10;;
13218;SDS011;6674;49.152;11.918;2023-03-21T07:47:29;5.27;;;4.63;;
13218;SDS011;6674;49.152;11.918;2023-03-21T07:49:56;6.60;;;4.50;;
13218;SDS011;6674;49.152;11.918;2023-03-21T07:52:23;5.53;;;4.33;;
13218;SDS011;6674;49.152;11.918;2023-03-21T07:54:51;5.13;;;4.47;;
13218;SDS011;6674;49.152;11.918;2023-03-21T07:57:17;4.80;;;4.27;;
13218;SDS011;6674;49.152;11.918;2023-03-21T07:59:44;4.73;;;4.17;;
13218;SDS011;6674;49.152;11.918;2023-03-21T08:02:12;6.60;;;4.40;;
13218;SDS011;6674;49.152;11.918;2023-03-21T08:04:39;5.30;;;4.50;;
13218;SDS011;6674;49.152;11.918;2023-03-21T08:07:06;5.63;;;4.33;;
13218;SDS011;6674;49.152;11.918;2023-03-21T08:09:32;6.33;;;4.40;;
13218;SDS011;6674;49.152;11.918;2023-03-21T08:12:01;7.63;;;3.80;;
13218;SDS011;6674;49.152;11.918;2023-03-21T08:14:28;4.50;;;3.90;;
13218;SDS011;6674;49.152;11.918;2023-03-21T08:19:40;4.30;;;3.57;;
13218;SDS011;6674;49.152;11.918;2023-03-21T08:22:07;4.37;;;3.50;;
13218;SDS011;6674;49.152;11.918;2023-03-21T08:24:34;4.60;;;3.50;;
13218;SDS011;6674;49.152;11.918;2023-03-21T08:27:02;4.77;;;3.10;;
13218;SDS011;6674;49.152;11.918;2023-03-21T08:29:29;4.73;;;3.73;;
13218;SDS011;6674;49.152;11.918;2023-03-21T08:31:56;5.40;;;3.50;;
13218;SDS011;6674;49.152;11.918;2023-03-21T08:34:23;3.70;;;3.23;;
13218;SDS011;6674;49.152;11.918;2023-03-21T08:36:50;3.77;;;2.53;;
13218;SDS011;6674;49.152;11.918;2023-03-21T08:39:17;4.53;;;3.13;;
13218;SDS011;6674;49.152;11.918;2023-03-21T08:41:45;4.13;;;3.03;;
13218;SDS011;6674;49.152;11.918;2023-03-21T08:44:13;3.63;;;2.70;;
13218;SDS011;6674;49.152;11.918;2023-03-21T08:46:41;4.23;;;2.60;;
13218;SDS011;6674;49.152;11.918;2023-03-21T08:49:07;3.63;;;2.40;;
13218;SDS011;6674;49.152;11.918;2023-03-21T08:51:34;3.67;;;2.53;;
13218;SDS011;6674;49.152;11.918;2023-03-21T08:54:01;5.33;;;3.00;;
13218;SDS011;6674;49.152;11.918;2023-03-21T08:56:28;2.67;;;2.40;;
13218;SDS011;6674;49.152;11.918;2023-03-21T08:58:55;2.90;;;2.40;;
13218;SDS011;6674;49.152;11.918;2023-03-21T09:01:24;3.00;;;2.30;;
13218;SDS011;6674;49.152;11.918;2023-03-21T09:03:51;3.83;;;2.23;;
13218;SDS011;6674;49.152;11.918;2023-03-21T09:06:17;4.43;;;2.70;;
13218;SDS011;6674;49.152;11.918;2023-03-21T09:08:44;3.53;;;2.60;;
13218;SDS011;6674;49.152;11.918;2023-03-21T09:11:11;4.57;;;2.50;;
13218;SDS011;6674;49.152;11.918;2023-03-21T09:13:37;4.33;;;2.77;;
13218;SDS011;6674;49.152;11.918;2023-03-21T09:16:04;4.03;;;2.73;;
13218;SDS011;6674;49.152;11.918;2023-03-21T09:18:33;3.33;;;2.50;;
13218;SDS011;6674;49.152;11.918;2023-03-21T09:21:13;3.27;;;2.43;;
13218;SDS011;6674;49.152;11.918;2023-03-21T09:23:42;4.50;;;2.80;;
13218;SDS011;6674;49.152;11.918;2023-03-21T09:26:10;3.53;;;2.77;;
13218;SDS011;6674;49.152;11.918;2023-03-21T09:28:38;3.53;;;2.90;;
13218;SDS011;6674;49.152;11.918;2023-03-21T09:31:05;3.60;;;3.23;;
13218;SDS011;6674;49.152;11.918;2023-03-21T09:33:37;3.43;;;2.73;;
13218;SDS011;6674;49.152;11.918;2023-03-21T09:36:05;6.03;;;3.40;;
13218;SDS011;6674;49.152;11.918;2023-03-21T09:38:35;3.73;;;3.00;;
13218;SDS011;6674;49.152;11.918;2023-03-21T09:41:04;3.90;;;2.93;;
13218;SDS011;6674;49.152;11.918;2023-03-21T09:43:39;3.60;;;2.67;;
13218;SDS011;6674;49.152;11.918;2023-03-21T09:46:16;3.47;;;2.83;;
13218;SDS011;6674;49.152;11.918;2023-03-21T09:48:52;3.90;;;2.97;;
13218;SDS011;6674;49.152;11.918;2023-03-21T09:51:24;4.73;;;3.17;;
13218;SDS011;6674;49.152;11.918;2023-03-21T09:53:54;4.77;;;3.07;;
13218;SDS011;6674;49.152;11.918;2023-03-21T09:56:24;2.40;;;2.20;;
13218;SDS011;6674;49.152;11.918;2023-03-21T09:58:51;4.63;;;2.93;;
13218;SDS011;6674;49.152;11.918;2023-03-21T10:01:22;3.70;;;2.80;;
13218;SDS011;6674;49.152;11.918;2023-03-21T10:03:54;4.03;;;3.00;;
13218;SDS011;6674;49.152;11.918;2023-03-21T10:06:23;3.17;;;2.83;;
13218;SDS011;6674;49.152;11.918;2023-03-21T10:08:54;4.40;;;3.17;;
13218;SDS011;6674;49.152;11.918;2023-03-21T10:11:24;3.10;;;2.80;;
13218;SDS011;6674;49.152;11.918;2023-03-21T10:13:54;3.63;;;3.00;;
13218;SDS011;6674;49.152;11.918;2023-03-21T10:16:25;4.20;;;3.00;;
13218;SDS011;6674;49.152;11.918;2023-03-21T10:18:55;3.80;;;2.67;;
13218;SDS011;6674;49.152;11.918;2023-03-21T10:21:23;3.10;;;2.80;;
13218;SDS011;6674;49.152;11.918;2023-03-21T10:23:52;4.67;;;3.00;;
13218;SDS011;6674;49.152;11.918;2023-03-21T10:26:21;4.20;;;3.00;;
13218;SDS011;6674;49.152;11.918;2023-03-21T10:28:50;3.83;;;3.00;;
13218;SDS011;6674;49.152;11.918;2023-03-21T10:31:19;3.30;;;3.00;;
13218;SDS011;6674;49.152;11.918;2023-03-21T10:33:49;3.53;;;3.10;;
13218;SDS011;6674;49.152;11.918;2023-03-21T10:36:18;2.73;;;2.53;;
13218;SDS011;6674;49.152;11.918;2023-03-21T10:38:51;4.00;;;3.17;;
13218;SDS011;6674;49.152;11.918;2023-03-21T10:41:20;3.93;;;2.93;;
13218;SDS011;6674;49.152;11.918;2023-03-21T10:43:46;4.60;;;3.00;;
13218;SDS011;6674;49.152;11.918;2023-03-21T10:46:30;3.40;;;2.70;;
13218;SDS011;6674;49.152;11.918;2023-03-21T10:48:57;3.50;;;3.10;;
13218;SDS011;6674;49.152;11.918;2023-03-21T10:51:26;4.07;;;2.77;;
13218;SDS011;6674;49.152;11.918;2023-03-21T10:53:56;3.00;;;2.37;;
13218;SDS011;6674;49.152;11.918;2023-03-21T10:56:24;2.70;;;2.50;;
13218;SDS011;6674;49.152;11.918;2023-03-21T10:58:53;2.77;;;2.40;;
13218;SDS011;6674;49.152;11.918;2023-03-21T11:01:24;4.17;;;2.90;;
13218;SDS011;6674;49.152;11.918;2023-03-21T11:03:55;4.70;;;3.30;;
13218;SDS011;6674;49.152;11.918;2023-03-21T11:06:29;2.83;;;2.63;;
13218;SDS011;6674;49.152;11.918;2023-03-21T11:08:59;3.27;;;2.90;;
13218;SDS011;6674;49.152;11.918;2023-03-21T11:11:32;3.80;;;2.80;;
13218;SDS011;6674;49.152;11.918;2023-03-21T11:14:01;5.30;;;2.70;;
13218;SDS011;6674;49.152;11.918;2023-03-21T11:16:34;2.80;;;2.60;;
13218;SDS011;6674;49.152;11.918;2023-03-21T11:19:11;3.30;;;3.00;;
13218;SDS011;6674;49.152;11.918;2023-03-21T11:21:41;4.00;;;3.00;;
13218;SDS011;6674;49.152;11.918;2023-03-21T11:24:10;3.10;;;2.80;;
13218;SDS011;6674;49.152;11.918;2023-03-21T11:26:40;3.20;;;2.90;;
13218;SDS011;6674;49.152;11.918;2023-03-21T11:29:12;3.97;;;3.20;;
13218;SDS011;6674;49.152;11.918;2023-03-21T11:31:48;2.87;;;2.67;;
13218;SDS011;6674;49.152;11.918;2023-03-21T11:34:22;3.43;;;3.13;;
13218;SDS011;6674;49.152;11.918;2023-03-21T11:36:56;3.10;;;2.80;;
13218;SDS011;6674;49.152;11.918;2023-03-21T11:39:29;4.17;;;2.60;;
13218;SDS011;6674;49.152;11.918;2023-03-21T11:41:58;3.23;;;2.60;;
13218;SDS011;6674;49.152;11.918;2023-03-21T11:44:26;2.50;;;2.30;;
13218;SDS011;6674;49.152;11.918;2023-03-21T11:46:55;3.10;;;2.80;;
13218;SDS011;6674;49.152;11.918;2023-03-21T11:49:22;2.90;;;2.60;;
13218;SDS011;6674;49.152;11.918;2023-03-21T11:51:53;2.67;;;2.47;;
13218;SDS011;6674;49.152;11.918;2023-03-21T11:54:30;3.00;;;2.73;;
13218;SDS011;6674;49.152;11.918;2023-03-21T11:57:06;4.87;;;2.70;;
13218;SDS011;6674;49.152;11.918;2023-03-21T11:59:44;3.37;;;2.73;;
13218;SDS011;6674;49.152;11.918;2023-03-21T12:02:18;3.50;;;2.60;;
13218;SDS011;6674;49.152;11.918;2023-03-21T12:05:06;2.97;;;2.47;;
13218;SDS011;6674;49.152;11.918;2023-03-21T12:07:43;3.03;;;2.80;;
13218;SDS011;6674;49.152;11.918;2023-03-21T12:10:34;2.70;;;2.50;;
13218;SDS011;6674;49.152;11.918;2023-03-21T12:13:18;3.83;;;2.60;;
13218;SDS011;6674;49.152;11.918;2023-03-21T12:15:59;3.63;;;2.93;;
13218;SDS011;6674;49.152;11.918;2023-03-21T12:18:40;3.33;;;2.67;;
13218;SDS011;6674;49.152;11.918;2023-03-21T12:21:19;2.70;;;2.50;;
13218;SDS011;6674;49.152;11.918;2023-03-21T12:23:55;3.90;;;3.23;;
13218;SDS011;6674;49.152;11.918;2023-03-21T12:26:27;3.47;;;2.80;;
13218;SDS011;6674;49.152;11.918;2023-03-21T12:31:49;4.60;;;3.50;;
13218;SDS011;6674;49.152;11.918;2023-03-21T12:34:28;3.97;;;2.73;;
13218;SDS011;6674;49.152;11.918;2023-03-21T12:37:14;3.23;;;2.93;;
13218;SDS011;6674;49.152;11.918;2023-03-21T12:39:47;3.67;;;2.73;;
13218;SDS011;6674;49.152;11.918;2023-03-21T12:42:21;2.63;;;2.43;;
13218;SDS011;6674;49.152;11.918;2023-03-21T12:45:03;2.83;;;2.63;;
13218;SDS011;6674;49.152;11.918;2023-03-21T12:47:36;4.57;;;3.73;;
13218;SDS011;6674;49.152;11.918;2023-03-21T12:50:11;3.03;;;2.83;;
13218;SDS011;6674;49.152;11.918;2023-03-21T12:52:42;4.63;;;2.83;;
13218;SDS011;6674;49.152;11.918;2023-03-21T12:55:15;2.90;;;2.60;;
13218;SDS011;6674;49.152;11.918;2023-03-21T12:57:45;3.23;;;2.97;;
13218;SDS011;6674;49.152;11.918;2023-03-21T13:00:16;2.97;;;2.70;;
13218;SDS011;6674;49.152;11.918;2023-03-21T13:02:46;2.97;;;2.50;;
13218;SDS011;6674;49.152;11.918;2023-03-21T13:05:17;3.73;;;2.70;;
13218;SDS011;6674;49.152;11.918;2023-03-21T13:07:49;4.03;;;3.40;;
13218;SDS011;6674;49.152;11.918;2023-03-21T13:10:20;3.33;;;2.80;;
13218;SDS011;6674;49.152;11.918;2023-03-21T13:12:54;2.87;;;2.67;;
13218;SDS011;6674;49.152;11.918;2023-03-21T13:15:33;3.00;;;2.80;;
13218;SDS011;6674;49.152;11.918;2023-03-21T13:18:15;2.87;;;2.57;;
13218;SDS011;6674;49.152;11.918;2023-03-21T13:20:51;3.13;;;2.83;;
13218;SDS011;6674;49.152;11.918;2023-03-21T13:23:21;3.10;;;2.80;;
13218;SDS011;6674;49.152;11.918;2023-03-21T13:25:51;2.90;;;2.60;;
13218;SDS011;6674;49.152;11.918;2023-03-21T13:28:21;3.27;;;2.97;;
13218;SDS011;6674;49.152;11.918;2023-03-21T13:30:52;3.30;;;2.77;;
13218;SDS011;6674;49.152;11.918;2023-03-21T13:33:21;2.60;;;2.37;;
13218;SDS011;6674;49.152;11.918;2023-03-21T13:35:58;2.90;;;2.70;;
13218;SDS011;6674;49.152;11.918;2023-03-21T13:38:29;3.50;;;3.00;;
13218;SDS011;6674;49.152;11.918;2023-03-21T13:40:59;3.67;;;3.10;;
13218;SDS011;6674;49.152;11.918;2023-03-21T13:43:31;3.73;;;2.50;;
13218;SDS011;6674;49.152;11.918;2023-03-21T13:46:07;3.10;;;2.70;;
13218;SDS011;6674;49.152;11.918;2023-03-21T13:48:53;4.20;;;3.40;;
13218;SDS011;6674;49.152;11.918;2023-03-21T13:51:37;3.00;;;2.70;;
13218;SDS011;6674;49.152;11.918;2023-03-21T13:54:15;3.73;;;2.80;;
13218;SDS011;6674;49.152;11.918;2023-03-21T13:56:48;4.03;;;3.10;;
13218;SDS011;6674;49.152;11.918;2023-03-21T13:59:17;2.47;;;2.27;;
13218;SDS011;6674;49.152;11.918;2023-03-21T14:02:01;3.13;;;2.83;;
13218;SDS011;6674;49.152;11.918;2023-03-21T14:04:44;3.10;;;2.80;;
13218;SDS011;6674;49.152;11.918;2023-03-21T14:07:12;3.30;;;2.60;;
13218;SDS011;6674;49.152;11.918;2023-03-21T14:09:46;2.80;;;2.60;;
13218;SDS011;6674;49.152;11.918;2023-03-21T14:12:17;4.20;;;3.10;;
13218;SDS011;6674;49.152;11.918;2023-03-21T14:14:48;3.80;;;2.90;;
13218;SDS011;6674;49.152;11.918;2023-03-21T14:17:21;2.93;;;2.50;;
13218;SDS011;6674;49.152;11.918;2023-03-21T14:19:50;3.30;;;3.00;;
13218;SDS011;6674;49.152;11.918;2023-03-21T14:22:18;3.20;;;2.90;;
13218;SDS011;6674;49.152;11.918;2023-03-21T14:24:48;2.60;;;2.40;;
13218;SDS011;6674;49.152;11.918;2023-03-21T14:27:21;2.40;;;2.00;;
13218;SDS011;6674;49.152;11.918;2023-03-21T14:29:48;3.00;;;2.57;;
13218;SDS011;6674;49.152;11.918;2023-03-21T14:32:18;2.70;;;2.50;;
13218;SDS011;6674;49.152;11.918;2023-03-21T14:34:47;2.90;;;2.60;;
13218;SDS011;6674;49.152;11.918;2023-03-21T14:37:24;2.60;;;2.40;;
13218;SDS011;6674;49.152;11.918;2023-03-21T14:39:55;3.33;;;2.13;;
13218;SDS011;6674;49.152;11.918;2023-03-21T14:42:24;3.43;;;2.60;;
13218;SDS011;6674;49.152;11.918;2023-03-21T14:44:52;2.17;;;1.97;;
13218;SDS011;6674;49.152;11.918;2023-03-21T14:47:24;2.43;;;2.17;;
13218;SDS011;6674;49.152;11.918;2023-03-21T14:49:52;2.93;;;2.67;;
13218;SDS011;6674;49.152;11.918;2023-03-21T14:52:21;2.43;;;2.23;;
13218;SDS011;6674;49.152;11.918;2023-03-21T14:54:49;2.70;;;2.50;;
13218;SDS011;6674;49.152;11.918;2023-03-21T14:57:18;3.13;;;2.10;;
13218;SDS011;6674;49.152;11.918;2023-03-21T14:59:48;3.80;;;2.60;;
13218;SDS011;6674;49.152;11.918;2023-03-21T15:02:18;3.67;;;2.57;;
13218;SDS011;6674;49.152;11.918;2023-03-21T15:04:48;3.00;;;2.80;;
13218;SDS011;6674;49.152;11.918;2023-03-21T15:07:25;2.90;;;2.67;;
13218;SDS011;6674;49.152;11.918;2023-03-21T15:09:53;2.90;;;2.60;;
13218;SDS011;6674;49.152;11.918;2023-03-21T15:12:21;3.27;;;2.50;;
13218;SDS011;6674;49.152;11.918;2023-03-21T15:14:49;3.70;;;2.90;;
13218;SDS011;6674;49.152;11.918;2023-03-21T15:17:16;2.70;;;2.50;;
13218;SDS011;6674;49.152;11.918;2023-03-21T15:19:44;3.23;;;2.57;;